PLYK1: Cottonwood River, Plymouth, KS

                                SHEF ID:       PLYK1     COTTONWOOD R NR PLYMOUTH, KS
STATION TYPE:
Regulating: Stage = 28.00, Flow = 11886

PRECIP STAGE STAGE(2) RIV-FLOW BAT-LOAD
in ft ft cfs volt
Ccp-Rev Ccp-Rev Ccp-Rev Ccp-Rev Ccp-Rev
(America/Chicago)
05/05 00:00 0.00 5.22 ---- 681 12.68
05/05 01:00 0.09 5.19 ---- 675 12.67
05/05 02:00 0.00 5.23 ---- 683 12.64
05/05 03:00 0.00 5.22 ---- 681 12.60
05/05 04:00 0.00 5.22 ---- 681 12.59
05/05 05:00 0.08 5.19 ---- 675 12.56
05/05 06:00 0.06 5.24 ---- 685 12.53
05/05 07:00 0.00 5.25 ---- 687 12.51
05/05 08:00 0.06 5.26 ---- 689 12.50
05/05 09:00 0.01 5.27 ---- 691 12.48
05/05 10:00 0.00 5.27 ---- 691 12.49
05/05 11:00 0.03 5.28 ---- 694 12.48
05/05 12:00 0.07 5.29 ---- 696 12.60
05/05 13:00 0.15 5.30 ---- 698 12.47
05/05 14:00 0.00 5.31 ---- 700 12.80
05/05 15:00 0.00 5.34 ---- 706 13.06
05/05 16:00 0.00 5.39 ---- 717 12.99
05/05 17:00 0.00 5.42 ---- 724 13.31
05/05 18:00 0.00 5.45 ---- 730 13.03
05/05 19:00 0.00 5.45 ---- 730 12.94
05/05 20:00 0.00 5.46 ---- 732 12.73
05/05 21:00 0.00 5.45 ---- 730 12.64
05/05 22:00 0.00 5.44 ---- 728 12.58
05/05 23:00 0.00 5.45 ---- 730 12.52
Data processed at Wed 06May2026 04:06 GMT

NOTICE: If you are parsing this page

Please convert to using our Data API. Starting early 2026 we will be migrating to: https://water.usace.army.mil with modern pages rendered in JavaScript. When this migration completes you will no longer be able to scrape this page! CWMSDataAPI (CDA)

Timeseries IDs (TSIDs)

TSIDs used from left to right in the data table
PLYM.Precip-Inc.Total.1Hour.1Hour.Ccp-Rev
PLYM.Stage.Inst.1Hour.0.Ccp-Rev
PLYM.Stage-Alt.Inst.1Hour.0.Ccp-Rev
PLYM.Flow.Inst.1Hour.0.Ccp-Rev
PLYM.Volt-Battery Load.Inst.1Hour.0.Ccp-Rev

                            

All information presented herein is the property of the government of the United States of America and may be revised or deleted at any time without prior notice. Dissemination of this information without the expressed written consent of the Public Affairs Office, Tulsa District U.S. Army Corps of Engineers is strictly prohibited. These data are gathered electronically and, as presented, have NOT undergone any form of quality control. These data are NOT guaranteed to be valid or correct.